createdAt,value
2023-04-05T00:01:34.762Z,83.21
2023-04-05T00:04:03.877Z,82.96
2023-04-05T00:06:33.131Z,83.04
2023-04-05T00:09:04.429Z,83.47
2023-04-05T00:11:35.288Z,83.75
2023-04-05T00:14:04.918Z,84.22
2023-04-05T00:16:36.454Z,83.99
2023-04-05T00:19:05.061Z,83.09
2023-04-05T00:21:34.654Z,82.84
2023-04-05T00:24:02.935Z,82.81
2023-04-05T00:26:31.675Z,82.62
2023-04-05T00:28:59.843Z,84.41
2023-04-05T00:31:28.659Z,85.58
2023-04-05T00:33:58.919Z,86.86
2023-04-05T00:36:27.800Z,86.94
2023-04-05T00:38:56.742Z,87.20
2023-04-05T00:41:25.050Z,86.03
2023-04-05T00:43:53.222Z,85.21
2023-04-05T00:46:22.106Z,85.43
2023-04-05T00:48:51.303Z,84.87
2023-04-05T00:51:21.290Z,84.17
2023-04-05T00:53:53.050Z,83.93
2023-04-05T00:56:23.012Z,83.56
2023-04-05T00:58:53.393Z,84.01
2023-04-05T01:01:23.389Z,84.55
2023-04-05T01:03:54.994Z,84.30
2023-04-05T01:06:46.144Z,84.29
2023-04-05T01:09:24.341Z,84.58
2023-04-05T01:11:56.129Z,84.74
2023-04-05T01:14:24.409Z,84.77
2023-04-05T01:16:58.393Z,84.84
2023-04-05T01:19:29.736Z,85.62
2023-04-05T01:22:21.032Z,85.31
2023-04-05T01:25:19.511Z,85.03
2023-04-05T01:28:03.663Z,84.98
2023-04-05T01:30:37.638Z,84.76
2023-04-05T01:33:15.076Z,84.80
2023-04-05T01:35:53.686Z,85.49
2023-04-05T01:38:26.309Z,85.66
2023-04-05T01:40:55.462Z,85.48
2023-04-05T01:43:24.317Z,85.17
2023-04-05T01:45:53.993Z,84.44
2023-04-05T01:48:22.031Z,83.78
2023-04-05T01:50:50.358Z,83.60
2023-04-05T01:53:18.830Z,84.53
2023-04-05T01:55:47.248Z,85.22
2023-04-05T01:58:15.352Z,85.53
2023-04-05T02:00:43.997Z,85.58
2023-04-05T02:03:14.360Z,84.64
2023-04-05T02:05:43.841Z,83.79
2023-04-05T02:08:11.920Z,84.48
2023-04-05T02:10:40.741Z,85.04
2023-04-05T02:13:10.029Z,85.09
2023-04-05T02:15:38.791Z,85.39
2023-04-05T02:18:08.155Z,86.23
2023-04-05T02:20:38.963Z,86.15
2023-04-05T02:23:07.611Z,84.97
2023-04-05T02:25:36.298Z,82.35
2023-04-05T02:28:06.421Z,80.82
2023-04-05T02:30:35.023Z,80.96
2023-04-05T02:33:03.627Z,81.05
2023-04-05T02:35:31.836Z,81.57
2023-04-05T02:38:02.104Z,81.38
2023-04-05T02:40:30.165Z,80.78
2023-04-05T02:42:58.158Z,79.24
2023-04-05T02:45:28.060Z,78.72
2023-04-05T02:47:58.858Z,78.94
2023-04-05T02:50:31.372Z,79.52
2023-04-05T02:53:01.200Z,79.82
2023-04-05T02:55:34.199Z,78.98
2023-04-05T02:58:04.000Z,78.45
2023-04-05T03:00:41.224Z,78.99
2023-04-05T03:03:11.498Z,79.82
2023-04-05T03:05:43.583Z,80.20
2023-04-05T03:08:19.697Z,79.46
2023-04-05T03:10:58.908Z,79.58
2023-04-05T03:13:27.383Z,78.59
2023-04-05T03:15:56.600Z,79.43
2023-04-05T03:18:27.602Z,78.29
2023-04-05T03:21:00.007Z,79.11
2023-04-05T03:23:32.089Z,80.36
2023-04-05T03:26:01.729Z,82.63
2023-04-05T03:28:34.403Z,81.69
2023-04-05T03:31:07.074Z,80.30
2023-04-05T03:33:36.401Z,77.47
2023-04-05T03:36:06.029Z,77.47
2023-04-05T03:38:40.312Z,76.44
2023-04-05T03:41:16.333Z,76.66
2023-04-05T03:43:44.813Z,77.16
2023-04-05T03:46:13.207Z,76.77
2023-04-05T03:48:41.960Z,76.85
2023-04-05T03:51:11.869Z,76.87
2023-04-05T03:53:41.898Z,76.02
2023-04-05T03:56:10.792Z,75.13
2023-04-05T03:58:46.813Z,74.62
2023-04-05T04:01:16.631Z,74.86
2023-04-05T04:03:44.983Z,75.60
2023-04-05T04:06:13.669Z,76.84
2023-04-05T04:08:44.172Z,78.40
2023-04-05T04:11:12.613Z,79.39
2023-04-05T04:13:42.789Z,79.92
2023-04-05T04:16:30.772Z,79.48
2023-04-05T04:18:59.187Z,81.61
2023-04-05T04:22:01.705Z,79.96
2023-04-05T04:25:11.886Z,81.98
2023-04-05T04:28:04.522Z,81.83
2023-04-05T04:30:48.735Z,81.51
2023-04-05T04:33:35.465Z,80.83
2023-04-05T04:36:35.209Z,79.88
2023-04-05T04:39:26.803Z,79.72
2023-04-05T04:42:25.925Z,79.50
2023-04-05T04:44:55.478Z,79.47
2023-04-05T04:47:31.918Z,78.95
2023-04-05T04:50:16.272Z,78.79
2023-04-05T04:52:44.814Z,78.48
2023-04-05T04:55:14.482Z,77.67
2023-04-05T04:57:44.822Z,78.99
2023-04-05T05:00:16.163Z,82.93
2023-04-05T05:02:45.263Z,84.22
2023-04-05T05:05:16.223Z,84.97
2023-04-05T05:07:44.729Z,84.86
2023-04-05T05:10:16.405Z,84.05
2023-04-05T05:12:46.301Z,84.51
2023-04-05T05:15:16.491Z,84.03
2023-04-05T05:17:45.610Z,82.86
2023-04-05T05:20:14.016Z,80.75
2023-04-05T05:22:47.052Z,81.07
2023-04-05T05:25:15.647Z,82.81
2023-04-05T05:27:45.671Z,81.92
2023-04-05T05:30:15.588Z,81.60
2023-04-05T05:32:44.105Z,80.61
2023-04-05T05:35:12.303Z,80.31
2023-04-05T05:37:41.379Z,79.95
2023-04-05T05:40:13.433Z,79.99
2023-04-05T05:42:41.793Z,78.27
2023-04-05T05:45:12.491Z,77.91
2023-04-05T05:47:42.210Z,77.15
2023-04-05T05:50:11.664Z,76.66
2023-04-05T05:52:39.999Z,75.35
2023-04-05T05:55:09.507Z,73.51
2023-04-05T05:57:38.921Z,73.70
2023-04-05T06:00:11.246Z,73.62
2023-04-05T06:02:48.929Z,73.60
2023-04-05T06:05:17.669Z,73.31
2023-04-05T06:07:45.770Z,72.93
2023-04-05T06:10:14.483Z,75.07
2023-04-05T06:12:42.714Z,74.75
2023-04-05T06:15:12.126Z,73.91
2023-04-05T06:17:43.037Z,72.92
2023-04-05T06:20:13.232Z,72.09
2023-04-05T06:22:41.917Z,72.42
2023-04-05T06:25:12.951Z,72.49
2023-04-05T06:27:41.616Z,72.77
2023-04-05T06:30:10.763Z,71.46
2023-04-05T06:32:39.049Z,69.78
2023-04-05T06:35:08.615Z,70.09
2023-04-05T06:37:38.222Z,70.72
2023-04-05T06:40:08.256Z,69.64
2023-04-05T06:42:36.327Z,68.63
2023-04-05T06:45:08.459Z,68.97
2023-04-05T06:47:36.990Z,69.31
2023-04-05T06:50:05.840Z,68.89
2023-04-05T06:52:34.906Z,69.50
2023-04-05T06:55:05.298Z,69.09
2023-04-05T06:57:33.945Z,69.23
2023-04-05T07:00:02.529Z,69.46
2023-04-05T07:02:30.716Z,70.13
2023-04-05T07:05:05.115Z,69.92
2023-04-05T07:07:34.105Z,63.62
2023-04-05T07:10:04.464Z,50.76
2023-04-05T07:12:33.746Z,46.54
2023-04-05T07:15:02.393Z,42.33
2023-04-05T07:17:31.302Z,39.57
2023-04-05T07:19:59.810Z,38.60
2023-04-05T07:22:28.177Z,33.58
2023-04-05T07:24:56.727Z,33.32
2023-04-05T07:27:27.471Z,33.61
2023-04-05T07:29:59.165Z,31.44
2023-04-05T07:32:27.582Z,32.33
2023-04-05T07:34:56.872Z,32.77
2023-04-05T07:37:26.019Z,33.43
2023-04-05T07:39:54.621Z,33.11
2023-04-05T07:42:23.239Z,38.50
2023-04-05T07:47:36.708Z,35.18
2023-04-05T07:50:07.170Z,30.14
2023-04-05T07:52:35.616Z,29.85
2023-04-05T07:55:04.072Z,29.49
2023-04-05T07:57:32.523Z,30.29
2023-04-05T08:00:02.290Z,29.53
2023-04-05T08:02:41.493Z,29.15
2023-04-05T08:05:09.977Z,31.03
2023-04-05T08:07:46.310Z,31.70
2023-04-05T08:10:14.671Z,33.98
2023-04-05T08:12:43.452Z,29.22
2023-04-05T08:15:13.380Z,29.88
2023-04-05T08:17:41.827Z,29.98
2023-04-05T08:20:11.281Z,30.92
2023-04-05T08:22:39.446Z,32.40
2023-04-05T08:25:09.215Z,33.91
2023-04-05T08:27:37.290Z,37.36
2023-04-05T08:30:07.920Z,34.19
2023-04-05T08:32:37.750Z,35.83
2023-04-05T08:35:07.235Z,34.44
2023-04-05T08:37:43.020Z,31.16
2023-04-05T08:40:12.971Z,32.12
2023-04-05T08:42:47.944Z,36.77
2023-04-05T08:45:20.275Z,37.00
2023-04-05T08:47:53.375Z,34.75
2023-04-05T08:50:21.987Z,38.87
2023-04-05T08:52:51.098Z,34.33
2023-04-05T08:55:44.682Z,33.41
2023-04-05T08:58:15.800Z,32.20
2023-04-05T09:00:44.978Z,32.72
2023-04-05T09:03:19.622Z,32.69
2023-04-05T09:05:49.921Z,38.10
2023-04-05T09:08:19.030Z,37.05
2023-04-05T09:10:47.424Z,37.13
2023-04-05T09:13:15.500Z,37.04
2023-04-05T09:15:44.228Z,37.43
2023-04-05T09:18:23.250Z,32.41
2023-04-05T09:21:04.138Z,34.41
2023-04-05T09:23:32.718Z,33.84
2023-04-05T09:26:01.166Z,31.78
2023-04-05T09:28:43.449Z,34.06
2023-04-05T09:31:11.734Z,35.93
2023-04-05T09:33:43.142Z,39.18
2023-04-05T09:36:12.970Z,39.95
2023-04-05T09:38:45.566Z,40.34
2023-04-05T09:41:14.203Z,37.16
2023-04-05T09:43:43.934Z,38.70
2023-04-05T09:46:31.700Z,41.00
2023-04-05T09:49:01.064Z,40.52
2023-04-05T09:51:37.912Z,42.32
2023-04-05T09:54:09.818Z,42.01
2023-04-05T09:56:39.615Z,40.36
2023-04-05T09:59:11.250Z,41.67
2023-04-05T10:01:41.658Z,41.55
2023-04-05T10:04:10.464Z,40.31
2023-04-05T10:06:42.233Z,41.43
2023-04-05T10:09:12.590Z,40.75
2023-04-05T10:11:40.910Z,39.66
2023-04-05T10:14:09.837Z,41.48
2023-04-05T10:16:42.430Z,41.78
2023-04-05T10:19:18.229Z,41.95
2023-04-05T10:21:49.075Z,42.91
2023-04-05T10:24:30.196Z,43.35
2023-04-05T10:27:06.926Z,44.81
2023-04-05T10:29:42.380Z,45.61
2023-04-05T10:32:15.479Z,44.48
2023-04-05T10:34:49.833Z,42.60
2023-04-05T10:37:36.985Z,43.90
2023-04-05T10:40:09.507Z,43.19
2023-04-05T10:42:42.932Z,42.95
2023-04-05T10:45:15.853Z,40.98
2023-04-05T10:47:48.951Z,39.03
2023-04-05T10:50:24.580Z,39.73
2023-04-05T10:52:54.688Z,41.80
2023-04-05T10:55:23.179Z,41.30
2023-04-05T10:57:52.583Z,40.74
2023-04-05T11:00:21.770Z,42.39
2023-04-05T11:02:55.300Z,42.47
2023-04-05T11:05:34.545Z,44.18
2023-04-05T11:08:09.946Z,41.27
2023-04-05T11:10:39.875Z,45.15
2023-04-05T11:13:10.742Z,47.16
2023-04-05T11:15:40.138Z,45.58
2023-04-05T11:18:10.600Z,47.68
2023-04-05T11:20:44.206Z,49.17
2023-04-05T11:23:16.086Z,50.50
2023-04-05T11:25:48.885Z,50.84
2023-04-05T11:28:25.754Z,50.35
2023-04-05T11:30:57.232Z,48.91
2023-04-05T11:33:58.833Z,50.15
2023-04-05T11:36:37.863Z,52.75
2023-04-05T11:39:30.445Z,49.73
2023-04-05T11:42:03.190Z,51.23
2023-04-05T11:44:40.688Z,55.29
2023-04-05T11:47:09.567Z,49.32
2023-04-05T11:49:38.328Z,46.78
2023-04-05T11:52:17.509Z,46.77
2023-04-05T11:54:49.389Z,48.83
2023-04-05T11:57:22.469Z,47.77
2023-04-05T11:59:52.135Z,46.20
2023-04-05T12:02:21.130Z,45.65
2023-04-05T12:04:56.688Z,42.43
2023-04-05T12:07:28.385Z,47.71
2023-04-05T12:10:16.205Z,46.26
2023-04-05T12:12:48.034Z,44.67
2023-04-05T12:15:18.955Z,46.24
2023-04-05T12:17:49.742Z,45.99
2023-04-05T12:20:20.971Z,46.60
2023-04-05T12:22:50.779Z,45.15
2023-04-05T12:25:21.772Z,45.85
2023-04-05T12:27:50.064Z,44.80
2023-04-05T12:30:19.462Z,43.24
2023-04-05T12:32:49.372Z,45.41
2023-04-05T12:35:20.059Z,45.77
2023-04-05T12:37:48.513Z,43.83
2023-04-05T12:40:24.023Z,47.80
2023-04-05T12:42:53.536Z,44.15
2023-04-05T12:45:25.124Z,43.06
2023-04-05T12:47:54.736Z,45.60
2023-04-05T12:50:29.228Z,45.73
2023-04-05T12:53:02.133Z,43.00
2023-04-05T12:55:32.734Z,42.05
2023-04-05T12:58:04.065Z,43.79
2023-04-05T13:00:33.073Z,46.72
2023-04-05T13:03:01.937Z,44.54
2023-04-05T13:05:31.929Z,44.73
2023-04-05T13:08:00.601Z,46.18
2023-04-05T13:10:29.096Z,45.16
2023-04-05T13:12:58.480Z,44.81
2023-04-05T13:15:27.334Z,44.56
2023-04-05T13:17:55.551Z,46.51
2023-04-05T13:20:24.043Z,46.16
2023-04-05T13:22:52.306Z,40.90
2023-04-05T13:25:20.685Z,41.35
2023-04-05T13:27:48.916Z,42.94
2023-04-05T13:30:19.332Z,42.74
2023-04-05T13:32:47.900Z,41.79
2023-04-05T13:35:16.310Z,42.33
2023-04-05T13:37:44.516Z,43.67
2023-04-05T13:40:13.404Z,44.55
2023-04-05T13:42:41.740Z,44.05
2023-04-05T13:45:10.889Z,45.66
2023-04-05T13:47:40.838Z,44.59
2023-04-05T13:50:10.489Z,45.01
2023-04-05T13:52:38.783Z,46.20
2023-04-05T13:55:07.791Z,47.65
2023-04-05T13:57:36.099Z,47.51
2023-04-05T14:00:04.993Z,48.81
2023-04-05T14:02:41.817Z,49.94
2023-04-05T14:05:10.721Z,49.43
2023-04-05T14:07:39.497Z,49.35
2023-04-05T14:10:08.802Z,50.50
2023-04-05T14:12:37.185Z,49.17
2023-04-05T14:15:06.977Z,46.77
2023-04-05T14:17:35.353Z,46.74
2023-04-05T14:20:05.537Z,47.76
2023-04-05T14:22:34.286Z,47.28
2023-04-05T14:25:02.913Z,48.78
2023-04-05T14:27:31.378Z,47.99
2023-04-05T14:29:59.832Z,44.54
2023-04-05T14:32:29.381Z,51.97
2023-04-05T14:34:58.665Z,50.61
2023-04-05T14:37:28.681Z,52.16
2023-04-05T14:39:57.257Z,53.00
2023-04-05T14:42:34.112Z,53.44
2023-04-05T14:45:11.363Z,54.58
2023-04-05T14:47:39.906Z,54.42
2023-04-05T14:50:09.298Z,53.91
2023-04-05T14:52:40.307Z,54.94
2023-04-05T14:55:09.395Z,52.84
2023-04-05T14:57:37.352Z,54.23
2023-04-05T15:00:08.507Z,52.36
2023-04-05T15:02:38.271Z,52.45
2023-04-05T15:05:07.559Z,51.96
2023-04-05T15:07:35.900Z,53.94
2023-04-05T15:10:06.838Z,53.52
2023-04-05T15:12:35.179Z,52.02
2023-04-05T15:15:03.942Z,49.55
2023-04-05T15:17:32.248Z,50.40
2023-04-05T15:20:00.390Z,50.40
2023-04-05T15:22:28.833Z,48.77
2023-04-05T15:24:57.646Z,49.06
2023-04-05T15:27:27.206Z,49.66
2023-04-05T15:29:55.635Z,50.84
2023-04-05T15:32:24.164Z,49.82
2023-04-05T15:34:52.476Z,48.91
2023-04-05T15:37:20.628Z,52.30
2023-04-05T15:39:49.931Z,52.76
2023-04-05T15:42:18.935Z,54.35
2023-04-05T15:44:49.021Z,54.99
2023-04-05T15:47:18.007Z,56.63
2023-04-05T15:49:46.651Z,56.49
2023-04-05T15:52:15.857Z,56.85
2023-04-05T15:54:44.899Z,57.11
2023-04-05T15:57:12.864Z,57.29
2023-04-05T15:59:41.231Z,58.12
2023-04-05T16:02:10.778Z,59.20
2023-04-05T16:04:39.460Z,60.96
2023-04-05T16:07:07.766Z,60.89
2023-04-05T16:09:36.558Z,60.70
2023-04-05T16:12:05.499Z,61.31
2023-04-05T16:14:34.376Z,63.24
2023-04-05T16:17:02.941Z,63.27
2023-04-05T16:19:33.407Z,63.88
2023-04-05T16:22:03.501Z,64.81
2023-04-05T16:24:33.227Z,63.75
2023-04-05T16:27:01.687Z,64.54
2023-04-05T16:29:29.933Z,63.67
2023-04-05T16:31:58.218Z,63.81
2023-04-05T16:34:26.835Z,64.64
2023-04-05T16:36:56.636Z,63.68
2023-04-05T16:39:24.936Z,63.84
2023-04-05T16:41:53.603Z,64.18
2023-04-05T16:44:22.011Z,63.82
2023-04-05T16:46:50.084Z,63.28
2023-04-05T16:49:18.494Z,63.35
2023-04-05T16:51:46.929Z,64.55
2023-04-05T16:54:17.438Z,65.09
2023-04-05T16:56:46.076Z,63.70
2023-04-05T16:59:14.332Z,63.87
2023-04-05T17:04:20.320Z,61.13
2023-04-05T17:06:49.372Z,61.39
2023-04-05T17:09:17.715Z,61.58
2023-04-05T17:11:46.437Z,60.96
2023-04-05T17:14:15.067Z,61.26
2023-04-05T17:16:47.977Z,62.97
2023-04-05T17:19:44.425Z,62.62
2023-04-05T17:22:12.867Z,63.60
2023-04-05T17:24:41.448Z,64.52
2023-04-05T17:27:10.150Z,64.88
2023-04-05T17:29:39.287Z,65.74
2023-04-05T17:32:08.401Z,65.80
2023-04-05T17:34:36.918Z,66.62
2023-04-05T17:37:14.529Z,66.90
2023-04-05T17:39:42.922Z,67.20
2023-04-05T17:42:11.374Z,68.45
2023-04-05T17:44:40.009Z,69.58
2023-04-05T17:47:09.770Z,70.11
2023-04-05T17:49:38.355Z,70.41
2023-04-05T17:52:09.443Z,71.60
2023-04-05T17:54:38.141Z,71.79
2023-04-05T17:57:06.690Z,71.88
2023-04-05T17:59:36.171Z,71.94
2023-04-05T18:02:04.704Z,72.10
2023-04-05T18:04:33.499Z,71.80
2023-04-05T18:07:01.898Z,71.64
2023-04-05T18:09:32.107Z,71.82
2023-04-05T18:12:01.755Z,71.47
2023-04-05T18:14:30.496Z,71.22
2023-04-05T18:16:59.426Z,71.26
2023-04-05T18:19:27.920Z,71.30
2023-04-05T18:21:56.292Z,72.05
2023-04-05T18:24:24.615Z,75.56
2023-04-05T18:26:54.134Z,76.66
2023-04-05T18:29:28.211Z,77.17
2023-04-05T18:31:56.663Z,77.44
2023-04-05T18:34:26.031Z,77.74
2023-04-05T18:36:54.255Z,78.61
2023-04-05T18:39:25.108Z,79.14
2023-04-05T18:41:56.614Z,79.58
2023-04-05T18:44:24.952Z,79.81
2023-04-05T18:46:53.796Z,79.78
2023-04-05T18:49:22.740Z,79.51
2023-04-05T18:51:50.866Z,79.59
2023-04-05T18:54:19.451Z,79.34
2023-04-05T18:56:47.762Z,79.54
2023-04-05T18:59:17.542Z,80.24
2023-04-05T19:01:45.817Z,81.46
2023-04-05T19:04:16.331Z,82.24
2023-04-05T19:06:44.877Z,83.36
2023-04-05T19:09:13.083Z,83.39
2023-04-05T19:11:41.719Z,84.04
2023-04-05T19:14:09.740Z,84.37
2023-04-05T19:16:39.754Z,83.94
2023-04-05T19:19:08.369Z,83.86
2023-04-05T19:21:36.653Z,83.60
2023-04-05T19:24:05.527Z,82.93
2023-04-05T19:26:33.983Z,83.07
2023-04-05T19:29:03.536Z,82.95
2023-04-05T19:31:32.354Z,83.34
2023-04-05T19:34:02.279Z,83.36
2023-04-05T19:36:30.963Z,83.80
2023-04-05T19:38:59.275Z,83.93
2023-04-05T19:41:32.673Z,84.14
2023-04-05T19:44:01.417Z,84.03
2023-04-05T19:46:31.298Z,84.34
2023-04-05T19:49:09.152Z,84.80
2023-04-05T19:51:37.755Z,85.19
2023-04-05T19:54:11.995Z,85.42
2023-04-05T19:56:40.739Z,85.75
2023-04-05T19:59:28.545Z,86.39
2023-04-05T20:01:58.110Z,86.74
2023-04-05T20:04:28.783Z,86.70
2023-04-05T20:06:56.957Z,86.59
2023-04-05T20:09:26.824Z,86.64
2023-04-05T20:11:58.028Z,86.39
2023-04-05T20:14:30.468Z,86.27
2023-04-05T20:16:59.550Z,86.12
2023-04-05T20:19:31.054Z,86.16
2023-04-05T20:22:01.301Z,86.17
2023-04-05T20:24:30.662Z,85.97
2023-04-05T20:26:59.200Z,86.37
2023-04-05T20:29:29.327Z,86.53
2023-04-05T20:31:57.785Z,87.36
2023-04-05T20:34:30.661Z,87.01
2023-04-05T20:37:00.717Z,87.14
2023-04-05T20:39:29.672Z,87.68
2023-04-05T20:41:58.477Z,88.03
2023-04-05T20:44:27.965Z,87.61
2023-04-05T20:46:58.317Z,87.36
2023-04-05T20:49:31.497Z,86.77
2023-04-05T20:51:59.974Z,86.48
2023-04-05T20:54:28.376Z,86.27
2023-04-05T20:56:56.950Z,86.45
2023-04-05T20:59:26.477Z,87.25
2023-04-05T21:01:55.112Z,87.68
2023-04-05T21:04:23.553Z,87.53
2023-04-05T21:06:53.771Z,87.67
2023-04-05T21:09:21.864Z,87.26
2023-04-05T21:11:50.008Z,87.73
2023-04-05T21:14:18.456Z,87.70
2023-04-05T21:16:46.853Z,87.76
2023-04-05T21:19:15.001Z,88.31
2023-04-05T21:21:43.758Z,89.56
2023-04-05T21:24:13.479Z,89.76
2023-04-05T21:26:41.778Z,89.54
2023-04-05T21:29:10.188Z,89.81
2023-04-05T21:31:38.507Z,90.05
2023-04-05T21:34:06.936Z,90.19
2023-04-05T21:36:35.137Z,89.96
2023-04-05T21:39:03.291Z,89.68
2023-04-05T21:41:33.252Z,89.60
2023-04-05T21:44:01.636Z,89.31
2023-04-05T21:46:29.797Z,89.45
2023-04-05T21:48:57.951Z,88.99
2023-04-05T21:51:26.331Z,88.90
2023-04-05T21:53:54.524Z,88.70
2023-04-05T21:56:22.779Z,88.92
2023-04-05T21:58:52.447Z,89.44
2023-04-05T22:01:20.962Z,89.61
2023-04-05T22:03:49.162Z,89.54
2023-04-05T22:06:17.401Z,89.53
2023-04-05T22:08:45.923Z,89.85
2023-04-05T22:11:14.298Z,90.34
2023-04-05T22:13:42.698Z,90.94
2023-04-05T22:16:12.507Z,91.08
2023-04-05T22:18:41.628Z,90.89
2023-04-05T22:21:11.264Z,91.28
2023-04-05T22:23:41.065Z,91.38
2023-04-05T22:26:11.136Z,91.41
2023-04-05T22:28:39.278Z,90.99
2023-04-05T22:31:07.459Z,90.80
2023-04-05T22:33:37.139Z,91.62
2023-04-05T22:36:06.154Z,91.59
2023-04-05T22:38:34.563Z,91.53
2023-04-05T22:41:02.848Z,91.39
2023-04-05T22:43:31.505Z,91.70
2023-04-05T22:45:59.858Z,92.45
2023-04-05T22:48:28.044Z,92.83
2023-04-05T22:50:58.247Z,92.94
2023-04-05T22:53:26.295Z,92.56
2023-04-05T22:55:54.861Z,92.14
2023-04-05T22:58:23.119Z,92.25
2023-04-05T23:00:51.582Z,92.41
2023-04-05T23:03:19.774Z,92.21
2023-04-05T23:05:48.534Z,92.59
2023-04-05T23:08:18.472Z,92.76
2023-04-05T23:10:47.162Z,92.99
2023-04-05T23:13:15.436Z,93.16
2023-04-05T23:15:43.806Z,93.81
2023-04-05T23:18:12.165Z,94.32
2023-04-05T23:20:40.558Z,94.34
2023-04-05T23:23:08.617Z,93.93
2023-04-05T23:25:38.581Z,93.58
2023-04-05T23:28:07.492Z,93.23
2023-04-05T23:30:35.646Z,93.22
2023-04-05T23:33:03.922Z,93.41
2023-04-05T23:35:32.145Z,93.17
2023-04-05T23:38:00.497Z,93.53
2023-04-05T23:40:28.812Z,93.47
2023-04-05T23:42:58.523Z,93.35
2023-04-05T23:45:27.144Z,93.62
2023-04-05T23:47:55.795Z,93.92
2023-04-05T23:50:23.942Z,94.13
2023-04-05T23:52:52.540Z,94.09
2023-04-05T23:55:21.759Z,93.99
2023-04-05T23:57:50.016Z,94.03
